Time;durP1;ratioP1;P1;durP2;ratioP2;P2;SDS_P1;SDS_P2;PMS_P1;PMS_P2;Temp;Humidity;BMP_temperature;BMP_pressure;BME280_temperature;BME280_humidity;BME280_pressure;Samples;Min_cycle;Max_cycle;Signal;HPM_P1;HPM_P2
2023/01/27 00:00:30;;;;;;;8.10;7.90;;;-0.40;99.90;;;;;;5021310;28;20232;-83
2023/01/27 00:02:58;;;;;;;8.20;8.00;;;-0.40;99.90;;;;;;5023300;28;20239;-83
2023/01/27 00:05:27;;;;;;;8.17;7.97;;;-0.40;99.90;;;;;;5024578;28;20318;-83
2023/01/27 00:07:57;;;;;;;8.07;7.87;;;-0.40;99.90;;;;;;5041766;28;20302;-83
2023/01/27 00:10:27;;;;;;;8.20;8.00;;;-0.50;99.90;;;;;;5046500;28;20238;-83
2023/01/27 00:16:01;;;;;;;8.10;7.90;;;-0.60;99.90;;;;;;5041785;28;20223;-84
2023/01/27 00:18:30;;;;;;;7.93;7.73;;;-0.50;99.90;;;;;;5041256;28;20246;-84
2023/01/27 00:26:27;;;;;;;8.10;7.90;;;-0.50;99.90;;;;;;5041594;28;20327;-84
2023/01/27 00:28:55;;;;;;;8.20;8.00;;;-0.40;99.90;;;;;;5057308;28;20313;-84
2023/01/27 00:34:11;;;;;;;8.03;7.83;;;-0.50;99.90;;;;;;5052880;28;20344;-85
2023/01/27 00:36:42;;;;;;;7.90;7.70;;;-0.50;99.90;;;;;;5042898;28;20313;-82
2023/01/27 00:39:12;;;;;;;8.20;8.00;;;-0.40;99.90;;;;;;5043810;28;20368;-83
2023/01/27 00:41:41;;;;;;;8.03;7.83;;;-0.40;99.90;;;;;;5054084;28;20235;-83
2023/01/27 00:44:12;;;;;;;7.97;7.77;;;-0.40;99.90;;;;;;5044731;28;21146;-83
2023/01/27 00:46:42;;;;;;;7.87;7.67;;;-0.40;99.90;;;;;;5046263;28;20249;-83
2023/01/27 00:49:12;;;;;;;7.93;7.73;;;-0.50;99.90;;;;;;5055672;28;20318;-83
2023/01/27 00:51:39;;;;;;;8.10;7.90;;;-0.50;99.90;;;;;;5056624;28;20276;-83
2023/01/27 00:54:08;;;;;;;7.73;7.53;;;-0.50;99.90;;;;;;5038757;28;20295;-83
2023/01/27 00:56:36;;;;;;;7.97;7.77;;;-0.40;99.90;;;;;;5045629;28;20242;-82
2023/01/27 00:59:07;;;;;;;7.90;7.70;;;-0.40;99.90;;;;;;5052729;28;20220;-83
2023/01/27 01:01:36;;;;;;;7.57;7.37;;;-0.40;99.90;;;;;;5038758;28;20243;-83
2023/01/27 01:04:06;;;;;;;7.90;7.70;;;-0.30;99.90;;;;;;5032040;28;20235;-83
2023/01/27 01:06:34;;;;;;;7.90;7.70;;;-0.40;99.90;;;;;;5037427;28;20333;-83
2023/01/27 01:09:03;;;;;;;8.27;8.07;;;-0.40;99.90;;;;;;5042139;28;20219;-83
2023/01/27 01:11:31;;;;;;;8.00;7.80;;;-0.40;99.90;;;;;;5052368;28;20223;-83
2023/01/27 01:13:58;;;;;;;8.20;8.00;;;-0.40;99.90;;;;;;5065182;28;20265;-83
2023/01/27 01:16:36;;;;;;;8.07;7.87;;;-0.40;99.90;;;;;;5078187;28;20230;-81
2023/01/27 01:19:05;;;;;;;8.10;7.90;;;-0.40;99.90;;;;;;5071203;28;20222;-81
2023/01/27 01:21:32;;;;;;;8.30;8.10;;;-0.50;99.90;;;;;;5059462;28;20273;-81
2023/01/27 01:24:00;;;;;;;8.47;8.27;;;-0.50;99.90;;;;;;5046075;28;20227;-83
2023/01/27 01:26:31;;;;;;;8.00;7.80;;;-0.50;99.90;;;;;;5034911;28;20273;-83
2023/01/27 01:28:59;;;;;;;8.23;8.03;;;-0.50;99.90;;;;;;5020674;28;20230;-83
2023/01/27 01:31:27;;;;;;;8.13;7.93;;;-0.50;99.90;;;;;;5038672;28;20230;-83
2023/01/27 01:33:54;;;;;;;8.20;8.00;;;-0.40;99.90;;;;;;5035770;28;20241;-83
2023/01/27 01:36:24;;;;;;;8.10;7.90;;;-0.50;99.90;;;;;;5033311;28;20254;-83
2023/01/27 01:38:56;;;;;;;8.40;8.20;;;-0.60;99.90;;;;;;5048947;28;21150;-83
2023/01/27 01:41:27;;;;;;;8.27;8.07;;;-0.60;99.90;;;;;;5039234;28;20233;-83
2023/01/27 01:43:55;;;;;;;8.30;8.10;;;-0.60;99.90;;;;;;5039619;28;20269;-83
2023/01/27 01:46:26;;;;;;;7.90;7.70;;;-0.60;99.90;;;;;;5047710;28;20331;-83
2023/01/27 01:48:56;;;;;;;8.10;7.90;;;-0.60;99.90;;;;;;5049705;28;20284;-83
2023/01/27 01:51:32;;;;;;;8.10;7.90;;;-0.60;99.90;;;;;;5044179;28;20265;-83
2023/01/27 01:54:03;;;;;;;8.17;7.97;;;-0.60;99.90;;;;;;5053266;28;20263;-83
2023/01/27 01:56:38;;;;;;;7.97;7.77;;;-0.50;99.90;;;;;;5044265;28;20321;-83
2023/01/27 01:59:12;;;;;;;7.97;7.77;;;-0.50;99.90;;;;;;5053099;28;20238;-82
2023/01/27 02:01:39;;;;;;;7.90;7.70;;;-0.60;99.90;;;;;;5051767;28;20230;-83
2023/01/27 02:04:11;;;;;;;7.87;7.67;;;-0.60;99.90;;;;;;5030009;28;20325;-83
2023/01/27 02:06:48;;;;;;;7.90;7.70;;;-0.60;99.90;;;;;;5052701;28;20336;-81
2023/01/27 02:09:17;;;;;;;7.87;7.67;;;-0.60;99.90;;;;;;5053547;28;20258;-83
2023/01/27 02:11:45;;;;;;;7.80;7.60;;;-0.60;99.90;;;;;;5055283;28;20218;-85
2023/01/27 02:14:15;;;;;;;7.90;7.70;;;-0.70;99.90;;;;;;5049359;28;20342;-83
2023/01/27 02:16:43;;;;;;;8.00;7.80;;;-0.70;99.90;;;;;;5047081;28;20249;-83
2023/01/27 02:19:21;;;;;;;7.97;7.77;;;-0.80;99.90;;;;;;5046865;28;20231;-83
2023/01/27 02:21:53;;;;;;;7.90;7.70;;;-0.90;99.90;;;;;;5053415;28;20412;-83
2023/01/27 02:24:24;;;;;;;7.90;7.70;;;-0.90;99.90;;;;;;5053481;28;20242;-83
2023/01/27 02:26:54;;;;;;;7.90;7.70;;;-0.90;99.90;;;;;;5052713;28;20257;-83
2023/01/27 02:29:21;;;;;;;8.00;7.80;;;-0.90;99.90;;;;;;5037358;28;20301;-83
2023/01/27 02:31:51;;;;;;;7.70;7.50;;;-0.90;99.90;;;;;;5044857;28;20212;-81
2023/01/27 02:34:25;;;;;;;7.70;7.50;;;-0.90;99.90;;;;;;5036360;28;20239;-83
2023/01/27 02:36:58;;;;;;;7.63;7.43;;;-0.80;99.90;;;;;;5044203;28;20243;-83
2023/01/27 02:39:34;;;;;;;7.57;7.37;;;-0.80;99.90;;;;;;5045274;28;20227;-83
2023/01/27 02:42:07;;;;;;;7.90;7.70;;;-0.80;99.90;;;;;;5046774;28;20265;-83
2023/01/27 02:44:36;;;;;;;7.83;7.63;;;-0.80;99.90;;;;;;5045867;28;20322;-83
2023/01/27 02:47:05;;;;;;;7.90;7.70;;;-0.80;99.90;;;;;;5045884;28;20243;-83
2023/01/27 02:49:33;;;;;;;8.20;8.00;;;-0.80;99.90;;;;;;5045284;28;20224;-84
2023/01/27 02:52:01;;;;;;;7.80;7.60;;;-0.80;99.90;;;;;;5045172;28;20253;-84
2023/01/27 02:54:30;;;;;;;7.67;7.47;;;-0.70;99.90;;;;;;5044057;28;20351;-83
2023/01/27 02:56:58;;;;;;;7.80;7.60;;;-0.70;99.90;;;;;;5052864;28;20235;-82
2023/01/27 02:59:28;;;;;;;7.87;7.67;;;-0.70;99.90;;;;;;5048623;28;20230;-84
2023/01/27 03:01:55;;;;;;;8.00;7.80;;;-0.70;99.90;;;;;;5041080;28;20227;-83
2023/01/27 03:04:24;;;;;;;7.70;7.50;;;-0.70;99.90;;;;;;5043993;28;20254;-84
2023/01/27 03:06:52;;;;;;;8.10;7.90;;;-0.70;99.90;;;;;;5051717;28;20240;-83
2023/01/27 03:09:20;;;;;;;7.80;7.60;;;-0.70;99.90;;;;;;5035640;28;20312;-84
2023/01/27 03:20:21;;;;;;;8.00;7.80;;;-0.80;99.90;;;;;;5023178;28;20230;-83
2023/01/27 03:22:50;;;;;;;7.73;7.53;;;-0.80;99.90;;;;;;5048208;28;20226;-83
2023/01/27 03:25:19;;;;;;;8.00;7.80;;;-0.70;99.90;;;;;;5025835;28;20263;-83
2023/01/27 03:27:48;;;;;;;7.90;7.70;;;-0.80;99.90;;;;;;5032235;28;20266;-83
2023/01/27 03:30:21;;;;;;;7.90;7.70;;;-0.80;99.90;;;;;;5060060;28;20231;-84
2023/01/27 03:32:49;;;;;;;8.00;7.80;;;-0.80;99.90;;;;;;5045011;28;20226;-82
2023/01/27 03:35:17;;;;;;;7.97;7.77;;;-0.80;99.90;;;;;;5052329;28;20331;-83
2023/01/27 03:46:18;;;;;;;8.20;8.00;;;-0.70;99.90;;;;;;5036654;28;20227;-84
2023/01/27 03:48:50;;;;;;;8.00;7.80;;;-0.70;99.90;;;;;;5054725;28;20245;-83
2023/01/27 03:51:21;;;;;;;7.90;7.70;;;-0.60;99.90;;;;;;5054138;28;20253;-83
2023/01/27 03:53:49;;;;;;;7.87;7.67;;;-0.70;99.90;;;;;;5053894;28;20238;-83
2023/01/27 03:56:20;;;;;;;7.70;7.50;;;-0.80;99.90;;;;;;5023516;28;20303;-83
2023/01/27 03:58:49;;;;;;;7.63;7.43;;;-0.80;99.90;;;;;;5041250;28;20239;-83
2023/01/27 04:01:21;;;;;;;8.10;7.90;;;-0.80;99.90;;;;;;5044795;28;20266;-83
2023/01/27 04:06:54;;;;;;;8.10;7.90;;;-0.70;99.90;;;;;;5039719;28;20235;-83
2023/01/27 04:09:25;;;;;;;7.90;7.70;;;-0.70;99.90;;;;;;5037241;28;20239;-84
2023/01/27 04:11:57;;;;;;;7.87;7.67;;;-0.70;99.90;;;;;;5054337;28;20254;-83
2023/01/27 04:14:28;;;;;;;8.03;7.83;;;-0.70;99.90;;;;;;5043204;28;20261;-83
2023/01/27 04:17:01;;;;;;;7.97;7.77;;;-0.80;99.90;;;;;;5032528;28;20290;-83
2023/01/27 04:19:28;;;;;;;8.00;7.80;;;-0.80;99.90;;;;;;5046078;28;20254;-83
2023/01/27 04:21:57;;;;;;;7.77;7.57;;;-0.80;99.90;;;;;;5054018;28;20321;-84
2023/01/27 04:24:25;;;;;;;7.60;7.40;;;-0.80;99.90;;;;;;5050803;28;20244;-83
2023/01/27 04:26:56;;;;;;;7.90;7.70;;;-0.80;99.90;;;;;;5035292;28;20329;-83
2023/01/27 04:29:26;;;;;;;7.97;7.77;;;-0.80;99.90;;;;;;5047212;28;20273;-83
2023/01/27 04:31:54;;;;;;;7.77;7.57;;;-0.80;99.90;;;;;;5059030;28;20227;-82
2023/01/27 04:34:24;;;;;;;7.80;7.60;;;-0.80;99.90;;;;;;5051419;28;20222;-84
2023/01/27 04:36:53;;;;;;;7.70;7.50;;;-0.80;99.90;;;;;;5053293;28;20263;-84
2023/01/27 04:39:21;;;;;;;8.00;7.80;;;-0.80;99.90;;;;;;5062997;28;20206;-83
2023/01/27 04:41:50;;;;;;;7.60;7.40;;;-0.80;99.90;;;;;;5058042;28;20245;-82
2023/01/27 04:44:19;;;;;;;8.10;7.90;;;-0.80;99.90;;;;;;5061197;28;20219;-83
2023/01/27 04:46:47;;;;;;;7.80;7.60;;;-0.80;99.90;;;;;;5054251;28;20270;-84
2023/01/27 04:49:15;;;;;;;7.93;7.73;;;-0.80;99.90;;;;;;5064558;28;20246;-82
2023/01/27 04:51:44;;;;;;;7.60;7.40;;;-0.80;99.90;;;;;;5039059;28;20219;-83
2023/01/27 04:54:12;;;;;;;7.63;7.43;;;-0.80;99.90;;;;;;5044257;28;20220;-83
2023/01/27 04:56:43;;;;;;;7.70;7.50;;;-0.90;99.90;;;;;;5064199;28;20234;-82
2023/01/27 04:59:14;;;;;;;7.70;7.50;;;-0.90;99.90;;;;;;5062098;28;20291;-81
2023/01/27 05:01:41;;;;;;;8.10;7.90;;;-0.90;99.90;;;;;;5079747;28;20222;-82
2023/01/27 05:04:09;;;;;;;7.70;7.50;;;-0.90;99.90;;;;;;5062809;28;20223;-83
2023/01/27 05:06:37;;;;;;;7.90;7.70;;;-0.90;99.90;;;;;;5064609;28;20273;-84
2023/01/27 05:09:09;;;;;;;7.80;7.60;;;-0.90;99.90;;;;;;5067312;28;20227;-82
2023/01/27 05:11:36;;;;;;;8.07;7.87;;;-0.80;99.90;;;;;;5067363;28;20266;-83
2023/01/27 05:14:05;;;;;;;8.00;7.80;;;-0.90;99.90;;;;;;5058675;28;20223;-82
2023/01/27 05:16:33;;;;;;;7.90;7.70;;;-0.90;99.90;;;;;;5055619;28;20239;-84
2023/01/27 05:19:02;;;;;;;7.77;7.57;;;-0.90;99.90;;;;;;5057551;28;20238;-84
2023/01/27 05:21:33;;;;;;;7.70;7.50;;;-0.80;99.90;;;;;;5062801;28;20252;-82
2023/01/27 05:24:03;;;;;;;7.90;7.70;;;-0.80;99.90;;;;;;5059561;28;20235;-84
2023/01/27 05:26:33;;;;;;;7.90;7.70;;;-0.90;99.90;;;;;;5062225;28;20242;-84
2023/01/27 05:29:00;;;;;;;7.67;7.47;;;-0.90;99.90;;;;;;5040782;28;20243;-85
2023/01/27 05:31:30;;;;;;;7.90;7.70;;;-0.80;99.90;;;;;;5042569;28;20219;-84
2023/01/27 05:34:00;;;;;;;7.73;7.53;;;-0.80;99.90;;;;;;5056330;28;20250;-84
2023/01/27 05:36:30;;;;;;;7.90;7.70;;;-0.80;99.90;;;;;;5056098;28;20290;-85
2023/01/27 05:39:00;;;;;;;7.80;7.60;;;-0.90;99.90;;;;;;5064067;28;20237;-83
2023/01/27 05:41:31;;;;;;;8.10;7.90;;;-1.00;99.90;;;;;;5060588;28;20230;-84
2023/01/27 05:43:59;;;;;;;7.90;7.70;;;-0.90;99.90;;;;;;5058048;28;20246;-84
2023/01/27 05:46:29;;;;;;;7.90;7.70;;;-1.00;99.90;;;;;;5051424;28;20264;-84
2023/01/27 07:23:23;;;;;;;8.93;8.73;;;-1.10;99.90;;;;;;5048331;28;20278;-86
2023/01/27 09:20:50;;;;;;;8.60;8.40;;;0.10;99.90;;;;;;4948432;28;20234;-82
2023/01/27 09:26:19;;;;;;;8.70;8.50;;;0.60;99.90;;;;;;5003772;28;20225;-85
2023/01/27 11:51:33;;;;;;;9.30;9.00;;;0.90;99.90;;;;;;4996638;22;20217;-82
2023/01/27 11:54:12;;;;;;;9.30;9.00;;;0.80;99.90;;;;;;5011784;28;20251;-84
2023/01/27 11:56:46;;;;;;;9.00;8.80;;;0.90;99.90;;;;;;5007823;28;20232;-83
2023/01/27 11:59:20;;;;;;;9.40;9.10;;;0.90;99.90;;;;;;5008153;28;20232;-85
2023/01/27 12:01:54;;;;;;;9.03;8.80;;;0.90;99.90;;;;;;5003637;28;20296;-85
2023/01/27 12:04:44;;;;;;;8.93;8.73;;;1.00;99.90;;;;;;5005459;28;20236;-84
2023/01/27 12:07:22;;;;;;;8.90;8.70;;;1.00;99.90;;;;;;5006510;28;20237;-84
2023/01/27 12:09:49;;;;;;;8.77;8.57;;;1.10;99.90;;;;;;5003521;28;20280;-83
2023/01/27 12:12:28;;;;;;;8.83;8.63;;;1.10;99.90;;;;;;5005894;28;20247;-84
2023/01/27 12:14:58;;;;;;;9.17;8.90;;;1.10;99.90;;;;;;5008901;28;20260;-83
2023/01/27 12:17:36;;;;;;;8.90;8.70;;;1.10;99.90;;;;;;5006735;28;20328;-83
2023/01/27 12:20:14;;;;;;;8.70;8.50;;;1.20;99.90;;;;;;5005818;28;20233;-84
2023/01/27 12:22:47;;;;;;;8.70;8.50;;;1.20;99.90;;;;;;5005270;28;20233;-85
2023/01/27 12:25:21;;;;;;;8.80;8.60;;;1.20;99.90;;;;;;5005049;28;20229;-85
2023/01/27 12:27:57;;;;;;;8.77;8.57;;;1.20;99.90;;;;;;5006374;28;20315;-81
2023/01/27 12:30:27;;;;;;;8.80;8.60;;;1.10;99.90;;;;;;5007645;28;20261;-82
2023/01/27 12:33:01;;;;;;;8.70;8.50;;;1.20;99.90;;;;;;5005999;28;20255;-84
2023/01/27 12:35:37;;;;;;;9.00;8.80;;;1.20;99.90;;;;;;5005939;28;20235;-85
2023/01/27 12:38:17;;;;;;;8.90;8.70;;;1.10;99.90;;;;;;5005897;28;20264;-84
2023/01/27 12:40:55;;;;;;;8.43;8.23;;;1.10;99.90;;;;;;5011862;28;20280;-83
2023/01/27 12:43:26;;;;;;;8.70;8.50;;;1.10;99.90;;;;;;5013506;28;20264;-84
2023/01/27 12:46:21;;;;;;;8.90;8.70;;;1.10;99.90;;;;;;5009638;28;20275;-84
2023/01/27 12:48:52;;;;;;;9.00;8.80;;;1.20;99.90;;;;;;5006636;28;20232;-84
2023/01/27 12:51:22;;;;;;;8.70;8.50;;;1.20;99.90;;;;;;5031505;28;20224;-85
2023/01/27 12:53:51;;;;;;;8.80;8.60;;;1.10;99.90;;;;;;5040791;28;20231;-84
2023/01/27 12:56:23;;;;;;;8.70;8.50;;;1.10;99.90;;;;;;5046570;28;20253;-84
2023/01/27 12:59:02;;;;;;;9.33;9.03;;;1.10;99.90;;;;;;5046793;28;20291;-84
2023/01/27 13:01:36;;;;;;;9.00;8.80;;;1.10;99.90;;;;;;5032588;28;20251;-84
2023/01/27 13:04:21;;;;;;;9.37;9.07;;;1.20;99.90;;;;;;5026890;28;20239;-85
2023/01/27 13:07:01;;;;;;;9.00;8.80;;;1.20;99.90;;;;;;5033168;28;20271;-84
2023/01/27 13:09:35;;;;;;;8.70;8.50;;;1.30;99.90;;;;;;5002904;28;20282;-85
2023/01/27 13:12:19;;;;;;;8.80;8.60;;;1.30;99.90;;;;;;5003758;28;20229;-84
2023/01/27 13:14:54;;;;;;;8.57;8.37;;;1.20;99.90;;;;;;5027195;28;20232;-84
2023/01/27 13:17:35;;;;;;;8.50;8.30;;;1.20;99.90;;;;;;5021749;28;20241;-83
2023/01/27 13:20:17;;;;;;;8.37;8.17;;;1.20;99.90;;;;;;5022536;28;20247;-84
2023/01/27 13:22:51;;;;;;;8.70;8.50;;;1.10;99.90;;;;;;5028177;28;20240;-85
2023/01/27 13:25:27;;;;;;;8.97;8.77;;;1.10;99.90;;;;;;5029902;28;20235;-83
2023/01/27 13:27:59;;;;;;;8.80;8.60;;;1.10;99.90;;;;;;5023767;28;20219;-84
2023/01/27 13:30:35;;;;;;;8.97;8.77;;;1.10;99.90;;;;;;5006918;28;20225;-84
2023/01/27 13:33:25;;;;;;;8.90;8.70;;;1.00;99.90;;;;;;5032354;28;20232;-83
2023/01/27 13:36:01;;;;;;;8.70;8.50;;;1.00;99.90;;;;;;5023487;28;20283;-84
2023/01/27 13:38:39;;;;;;;8.60;8.40;;;1.00;99.90;;;;;;5022007;28;20236;-85
2023/01/27 13:41:14;;;;;;;8.60;8.40;;;1.10;99.90;;;;;;5025574;28;20234;-83
2023/01/27 13:43:56;;;;;;;8.60;8.40;;;1.10;99.90;;;;;;5024884;28;20234;-84
2023/01/27 13:46:33;;;;;;;8.30;8.10;;;1.20;99.90;;;;;;5022269;28;20247;-84
2023/01/27 13:49:26;;;;;;;8.53;8.33;;;1.20;99.90;;;;;;5022659;28;20231;-84
2023/01/27 13:51:54;;;;;;;8.50;8.30;;;1.20;99.90;;;;;;5021940;28;20304;-84
2023/01/27 13:54:25;;;;;;;8.77;8.57;;;1.20;99.90;;;;;;5022911;28;20348;-84
2023/01/27 13:57:08;;;;;;;8.70;8.50;;;1.20;99.90;;;;;;5022088;28;20263;-84
2023/01/27 13:59:46;;;;;;;9.00;8.80;;;1.30;99.90;;;;;;5022997;28;20254;-84
2023/01/27 14:03:07;;;;;;;9.00;8.80;;;1.20;99.90;;;;;;5024168;28;20239;-84
2023/01/27 14:05:55;;;;;;;8.50;8.30;;;1.20;99.90;;;;;;4990462;28;20228;-85
2023/01/27 14:08:51;;;;;;;8.53;8.33;;;1.10;99.90;;;;;;5021976;28;20220;-85
2023/01/27 14:11:29;;;;;;;8.77;8.57;;;1.10;99.90;;;;;;5022337;28;20240;-84
2023/01/27 14:14:31;;;;;;;8.93;8.73;;;1.00;99.90;;;;;;5031263;28;20295;-85
2023/01/27 14:17:25;;;;;;;8.27;8.07;;;1.00;99.90;;;;;;5023065;28;20215;-84
2023/01/27 14:20:45;;;;;;;8.43;8.23;;;1.00;99.90;;;;;;5021970;28;20242;-85
2023/01/27 14:23:32;;;;;;;9.10;8.90;;;1.10;99.90;;;;;;5010068;28;20232;-83
2023/01/27 14:26:16;;;;;;;8.70;8.50;;;1.10;99.90;;;;;;5021662;28;20314;-82
2023/01/27 14:29:03;;;;;;;8.67;8.47;;;1.20;99.90;;;;;;5036091;28;20232;-82
2023/01/27 14:31:48;;;;;;;8.97;8.77;;;1.10;99.90;;;;;;5005301;28;20385;-83
2023/01/27 14:34:40;;;;;;;9.00;8.80;;;1.00;99.90;;;;;;5028618;28;20228;-83
2023/01/27 14:37:25;;;;;;;8.70;8.50;;;1.00;99.90;;;;;;5020782;28;20220;-82
2023/01/27 14:40:08;;;;;;;8.70;8.50;;;1.00;99.90;;;;;;5006722;28;20213;-83
2023/01/27 14:42:42;;;;;;;8.60;8.40;;;1.00;99.90;;;;;;5005138;28;20260;-84
2023/01/27 14:45:20;;;;;;;8.63;8.43;;;1.00;99.90;;;;;;5031896;28;20246;-83
2023/01/27 14:47:59;;;;;;;8.70;8.50;;;1.00;99.90;;;;;;5047308;28;20220;-85
2023/01/27 14:50:37;;;;;;;9.10;8.80;;;0.90;99.90;;;;;;5049623;28;20782;-83
2023/01/27 14:53:33;;;;;;;8.90;8.70;;;0.90;99.90;;;;;;5047390;28;20787;-83
2023/01/27 14:56:12;;;;;;;9.30;9.00;;;1.00;99.90;;;;;;5046646;28;20235;-83
2023/01/27 14:59:09;;;;;;;8.93;8.70;;;0.90;99.90;;;;;;5032770;28;20216;-82
2023/01/27 15:01:55;;;;;;;9.10;8.80;;;0.90;99.90;;;;;;5046473;28;20279;-85
2023/01/27 15:04:51;;;;;;;9.20;8.90;;;0.90;99.90;;;;;;5047437;28;20270;-83
2023/01/27 15:07:30;;;;;;;8.87;8.67;;;0.80;99.90;;;;;;5047575;28;20223;-84
2023/01/27 15:10:26;;;;;;;9.20;8.90;;;0.80;99.90;;;;;;5046814;28;20294;-86
2023/01/27 15:13:45;;;;;;;8.97;8.77;;;0.90;99.90;;;;;;5044545;28;20251;-85
2023/01/27 15:16:42;;;;;;;9.00;8.77;;;1.00;99.90;;;;;;5042160;28;20235;-85
2023/01/27 15:19:56;;;;;;;8.87;8.67;;;1.00;99.90;;;;;;5042985;28;20237;-85
2023/01/27 15:23:06;;;;;;;8.90;8.70;;;1.10;99.90;;;;;;4994560;28;20267;-86
2023/01/27 15:25:39;;;;;;;8.90;8.70;;;1.00;99.90;;;;;;5032346;28;20227;-86
2023/01/27 15:28:16;;;;;;;8.73;8.53;;;1.00;99.90;;;;;;5041677;28;20326;-86
2023/01/27 15:31:21;;;;;;;9.00;8.80;;;1.00;99.90;;;;;;5041457;28;20238;-85
2023/01/27 15:33:59;;;;;;;9.13;8.83;;;1.00;99.90;;;;;;5042310;28;20254;-86
2023/01/27 15:36:39;;;;;;;9.20;8.90;;;1.00;99.90;;;;;;5030061;28;20232;-85
2023/01/27 15:42:14;;;;;;;8.80;8.60;;;1.00;99.90;;;;;;5032565;28;20232;-85
2023/01/27 15:45:00;;;;;;;8.90;8.70;;;1.00;99.90;;;;;;5024531;28;20225;-85
2023/01/27 15:47:31;;;;;;;8.90;8.70;;;0.90;99.90;;;;;;5024934;28;20318;-85
2023/01/27 15:50:15;;;;;;;8.47;8.27;;;1.00;99.90;;;;;;5023814;28;20315;-85
2023/01/27 15:52:45;;;;;;;8.53;8.33;;;0.90;99.90;;;;;;5023037;28;20654;-85
2023/01/27 15:55:29;;;;;;;8.87;8.67;;;0.70;99.90;;;;;;5024782;28;20239;-85
2023/01/27 15:58:19;;;;;;;8.90;8.70;;;0.60;99.90;;;;;;5022387;28;20224;-86
2023/01/27 16:00:51;;;;;;;8.97;8.77;;;0.60;99.90;;;;;;5030873;28;20254;-85
2023/01/27 16:03:26;;;;;;;8.90;8.70;;;0.70;99.90;;;;;;5021220;28;20278;-86
2023/01/27 16:08:45;;;;;;;8.57;8.37;;;0.70;99.90;;;;;;5019994;28;20220;-86
2023/01/27 16:11:49;;;;;;;8.70;8.50;;;0.60;99.90;;;;;;5024992;28;20340;-86
2023/01/27 16:14:44;;;;;;;8.47;8.27;;;0.60;99.90;;;;;;5021496;28;20243;-87
2023/01/27 16:17:25;;;;;;;8.85;8.65;;;0.60;99.90;;;;;;5019826;28;20505;-86
2023/01/27 16:20:19;;;;;;;8.77;8.57;;;0.60;99.90;;;;;;5020167;28;20322;-86
2023/01/27 16:22:57;;;;;;;8.70;8.50;;;0.70;99.90;;;;;;5028757;28;20318;-86
2023/01/27 16:25:34;;;;;;;8.20;8.00;;;0.70;99.90;;;;;;5021232;28;20318;-87
2023/01/27 16:28:12;;;;;;;8.50;8.30;;;0.70;99.90;;;;;;5021419;28;20468;-85
2023/01/27 16:30:59;;;;;;;8.40;8.20;;;0.70;99.90;;;;;;5019987;28;20213;-86
2023/01/27 16:33:33;;;;;;;8.70;8.50;;;0.70;99.90;;;;;;5019795;28;20705;-86
2023/01/27 16:36:08;;;;;;;8.57;8.37;;;0.70;99.90;;;;;;5019724;28;20712;-87
2023/01/27 16:38:39;;;;;;;8.50;8.30;;;0.70;99.90;;;;;;5019267;28;20227;-87
2023/01/27 16:41:18;;;;;;;8.60;8.40;;;0.60;99.90;;;;;;5006064;28;20268;-86
2023/01/27 16:43:54;;;;;;;8.70;8.50;;;0.40;99.90;;;;;;5013834;28;20237;-84
2023/01/27 16:46:32;;;;;;;8.60;8.40;;;0.50;99.90;;;;;;5027224;28;20335;-85
2023/01/27 16:49:03;;;;;;;8.70;8.50;;;0.40;99.90;;;;;;5019297;28;20270;-85
2023/01/27 16:51:33;;;;;;;9.13;8.83;;;0.40;99.90;;;;;;5019064;28;20240;-86
2023/01/27 16:54:02;;;;;;;8.80;8.60;;;0.30;99.90;;;;;;5023049;28;20232;-86
2023/01/27 16:56:39;;;;;;;8.90;8.70;;;0.40;99.90;;;;;;5024401;28;20231;-85
2023/01/27 16:59:10;;;;;;;9.20;8.90;;;0.40;99.90;;;;;;5007934;28;20260;-88
2023/01/27 17:01:46;;;;;;;7.90;7.70;;;1.00;99.90;;;;;;5026625;28;20228;-85
2023/01/27 17:04:24;;;;;;;8.60;8.40;;;1.30;99.90;;;;;;5042248;28;20302;-84
2023/01/27 17:06:56;;;;;;;8.50;8.30;;;1.10;99.90;;;;;;5039290;28;20239;-86
2023/01/27 17:09:26;;;;;;;8.70;8.50;;;1.00;99.90;;;;;;5039791;28;20231;-85
2023/01/27 17:11:58;;;;;;;8.70;8.50;;;1.00;99.90;;;;;;5037163;28;20232;-86
2023/01/27 17:14:41;;;;;;;8.90;8.70;;;0.80;99.90;;;;;;5024098;28;20247;-86
2023/01/27 17:17:29;;;;;;;8.70;8.50;;;0.70;99.90;;;;;;5023221;28;20234;-88
2023/01/27 17:20:06;;;;;;;8.60;8.40;;;0.70;99.90;;;;;;5040484;28;20226;-86
2023/01/27 17:22:43;;;;;;;8.80;8.60;;;0.70;99.90;;;;;;5000525;28;20233;-86
2023/01/27 17:25:22;;;;;;;8.50;8.30;;;0.60;99.90;;;;;;5000861;28;20363;-85
2023/01/27 17:27:53;;;;;;;8.53;8.33;;;0.50;99.90;;;;;;5003501;28;20694;-88
2023/01/27 17:30:30;;;;;;;8.57;8.37;;;0.50;99.90;;;;;;5031252;28;20228;-87
2023/01/27 17:33:07;;;;;;;8.90;8.70;;;0.40;99.90;;;;;;5038532;28;20231;-85
2023/01/27 17:35:38;;;;;;;8.63;8.43;;;0.40;99.90;;;;;;5038704;28;20293;-85
2023/01/27 17:38:15;;;;;;;8.37;8.17;;;0.40;99.90;;;;;;5039442;28;20270;-85
2023/01/27 17:40:47;;;;;;;8.60;8.40;;;0.30;99.90;;;;;;5039808;28;20227;-83
2023/01/27 17:43:33;;;;;;;8.40;8.20;;;0.30;99.90;;;;;;5023531;28;20288;-87
2023/01/27 17:46:20;;;;;;;8.20;8.00;;;0.20;99.90;;;;;;5037859;28;20238;-83
2023/01/27 17:48:57;;;;;;;8.03;7.83;;;0.20;99.90;;;;;;5028263;28;20238;-83
2023/01/27 17:51:27;;;;;;;8.10;7.90;;;0.30;99.90;;;;;;5028972;28;20311;-83
2023/01/27 17:53:56;;;;;;;8.20;8.00;;;0.40;99.90;;;;;;5021354;28;20256;-83
2023/01/27 17:56:28;;;;;;;8.10;7.90;;;0.40;99.90;;;;;;5020978;28;20239;-84
2023/01/27 17:59:05;;;;;;;8.00;7.80;;;0.30;99.90;;;;;;5033103;28;20260;-85
2023/01/27 18:01:33;;;;;;;8.00;7.80;;;0.40;99.90;;;;;;5030206;28;20243;-84
2023/01/27 18:04:05;;;;;;;8.23;8.03;;;0.40;99.90;;;;;;5021417;28;20232;-85
2023/01/27 18:06:33;;;;;;;8.40;8.20;;;0.40;99.90;;;;;;5021603;28;20252;-85
2023/01/27 18:09:19;;;;;;;8.03;7.83;;;0.30;99.90;;;;;;5022568;28;20239;-86
2023/01/27 18:11:57;;;;;;;8.17;7.97;;;0.40;99.90;;;;;;5015162;28;20263;-85
2023/01/27 18:14:25;;;;;;;8.07;7.87;;;0.40;99.90;;;;;;5014188;28;20343;-85
2023/01/27 18:17:08;;;;;;;7.97;7.77;;;0.50;99.90;;;;;;5027485;28;20259;-86
2023/01/27 18:19:37;;;;;;;8.17;7.97;;;0.50;99.90;;;;;;5011992;28;20259;-84
2023/01/27 18:22:13;;;;;;;7.87;7.67;;;0.50;99.90;;;;;;5018542;28;20243;-85
2023/01/27 18:24:51;;;;;;;7.80;7.60;;;0.50;99.90;;;;;;5026985;28;20231;-86
2023/01/27 18:27:31;;;;;;;8.20;8.00;;;0.50;99.90;;;;;;5024859;28;20317;-85
2023/01/27 18:30:10;;;;;;;8.33;8.13;;;0.50;99.90;;;;;;5025226;28;20236;-86
2023/01/27 18:32:41;;;;;;;8.60;8.40;;;0.50;99.90;;;;;;5026436;28;20242;-86
2023/01/27 18:35:25;;;;;;;8.50;8.30;;;0.40;99.90;;;;;;5032015;28;20227;-86
2023/01/27 18:37:58;;;;;;;8.57;8.37;;;0.40;99.90;;;;;;5024509;28;21049;-86
2023/01/27 18:40:34;;;;;;;8.40;8.20;;;0.40;99.90;;;;;;5029056;28;20238;-86
2023/01/27 18:43:05;;;;;;;8.47;8.27;;;0.40;99.90;;;;;;5032989;28;20330;-86
2023/01/27 18:45:32;;;;;;;8.33;8.13;;;0.40;99.90;;;;;;5032674;28;20223;-86
2023/01/27 18:48:02;;;;;;;8.47;8.27;;;0.40;99.90;;;;;;5024361;28;20363;-86
2023/01/27 18:50:42;;;;;;;8.37;8.17;;;0.40;99.90;;;;;;5025555;28;20319;-86
2023/01/27 18:53:18;;;;;;;8.20;8.00;;;0.40;99.90;;;;;;5027893;28;20231;-86
2023/01/27 18:55:47;;;;;;;8.50;8.30;;;0.40;99.90;;;;;;5026463;28;20282;-85
2023/01/27 18:58:18;;;;;;;8.30;8.10;;;0.40;99.90;;;;;;5029579;28;20236;-87
2023/01/27 19:00:47;;;;;;;8.10;7.90;;;0.40;99.90;;;;;;5030298;28;20296;-87
2023/01/27 19:03:18;;;;;;;7.97;7.77;;;0.40;99.90;;;;;;5020763;28;20263;-87
2023/01/27 19:05:55;;;;;;;7.93;7.73;;;0.40;99.90;;;;;;5020501;28;20232;-86
2023/01/27 19:08:24;;;;;;;8.27;8.07;;;0.40;99.90;;;;;;5023244;28;20235;-86
2023/01/27 19:10:53;;;;;;;8.20;8.00;;;0.40;99.90;;;;;;5020076;28;20331;-86
2023/01/27 19:13:22;;;;;;;8.40;8.20;;;0.40;99.90;;;;;;5022901;28;20232;-86
2023/01/27 19:15:53;;;;;;;8.60;8.40;;;0.40;99.90;;;;;;5037340;28;20232;-86
2023/01/27 19:18:26;;;;;;;8.57;8.37;;;0.50;99.90;;;;;;5031298;28;20766;-86
2023/01/27 19:21:00;;;;;;;8.50;8.30;;;0.50;99.90;;;;;;5031038;28;20247;-87
2023/01/27 19:23:31;;;;;;;8.37;8.17;;;0.50;99.90;;;;;;5028485;28;20247;-87
2023/01/27 19:26:03;;;;;;;8.23;8.03;;;0.40;99.90;;;;;;5028169;28;20236;-85
2023/01/27 19:28:36;;;;;;;8.37;8.17;;;0.50;99.90;;;;;;5039463;28;20242;-85
2023/01/27 19:31:06;;;;;;;8.13;7.93;;;0.50;99.90;;;;;;5040140;28;20235;-86
2023/01/27 19:33:35;;;;;;;8.20;8.00;;;0.50;99.90;;;;;;5040051;28;20236;-86
2023/01/27 19:36:21;;;;;;;8.40;8.20;;;0.50;99.90;;;;;;5038366;28;20232;-88
2023/01/27 19:38:51;;;;;;;8.40;8.20;;;0.50;99.90;;;;;;5039278;28;20292;-85
2023/01/27 19:41:21;;;;;;;8.40;8.20;;;0.50;99.90;;;;;;5040043;28;20246;-85
2023/01/27 19:43:51;;;;;;;8.30;8.10;;;0.50;99.90;;;;;;5040069;28;20290;-85
2023/01/27 19:46:21;;;;;;;8.20;8.00;;;0.60;99.90;;;;;;5040112;28;20269;-86
2023/01/27 19:48:49;;;;;;;8.20;8.00;;;0.60;99.90;;;;;;5039918;28;20243;-85
2023/01/27 19:51:22;;;;;;;8.20;8.00;;;0.60;99.90;;;;;;5045788;28;20295;-86
2023/01/27 19:53:50;;;;;;;8.40;8.20;;;0.60;99.90;;;;;;5044110;28;20230;-86
2023/01/27 19:56:19;;;;;;;8.30;8.10;;;0.60;99.90;;;;;;5039913;28;20339;-86
2023/01/27 19:58:50;;;;;;;8.20;8.00;;;0.60;99.90;;;;;;5039653;28;20253;-85
2023/01/27 20:01:18;;;;;;;8.20;8.00;;;0.70;99.90;;;;;;5040642;28;20234;-86
2023/01/27 20:03:46;;;;;;;8.20;8.00;;;0.70;99.90;;;;;;5040027;28;20310;-86